Time;durP1;ratioP1;P1;durP2;ratioP2;P2;SDS_P1;SDS_P2;PMS_P1;PMS_P2;Temp;Humidity;BMP_temperature;BMP_pressure;BME280_temperature;BME280_humidity;BME280_pressure;Samples;Min_cycle;Max_cycle;Signal;HPM_P1;HPM_P2
2022/10/26 00:00:39;;;;;;;2.27;1.00;;;15.50;99.90;;;;;;5074618;28;20185;-75
2022/10/26 00:03:04;;;;;;;3.40;1.10;;;15.50;99.90;;;;;;5073895;28;20521;-75
2022/10/26 00:05:33;;;;;;;1.80;0.80;;;15.50;99.90;;;;;;5074324;28;20631;-75
2022/10/26 00:07:59;;;;;;;1.90;0.90;;;15.50;99.90;;;;;;5073647;28;20295;-75
2022/10/26 00:10:25;;;;;;;2.13;1.10;;;15.50;99.90;;;;;;5037123;28;20971;-75
2022/10/26 00:12:51;;;;;;;2.63;0.93;;;15.50;99.90;;;;;;5057777;28;20571;-75
2022/10/26 00:15:18;;;;;;;4.70;0.90;;;15.50;99.90;;;;;;5036436;28;20236;-75
2022/10/26 00:17:44;;;;;;;2.70;0.93;;;15.50;99.90;;;;;;5036246;28;20941;-75
2022/10/26 00:20:10;;;;;;;3.77;1.00;;;15.50;99.90;;;;;;5036080;28;20698;-75
2022/10/26 00:22:36;;;;;;;2.83;0.90;;;15.60;99.90;;;;;;5035760;28;20563;-75
2022/10/26 00:25:02;;;;;;;2.30;0.87;;;15.60;99.90;;;;;;5054059;28;20900;-75
2022/10/26 00:27:28;;;;;;;4.07;0.90;;;15.60;99.90;;;;;;5019837;28;20173;-75
2022/10/26 00:29:53;;;;;;;2.97;0.90;;;15.60;99.90;;;;;;5035820;28;20607;-75
2022/10/26 00:32:19;;;;;;;4.53;1.00;;;15.60;99.90;;;;;;5053580;28;20165;-75
2022/10/26 00:34:45;;;;;;;2.47;1.07;;;15.60;99.90;;;;;;5053722;28;20524;-75
2022/10/26 00:37:11;;;;;;;4.07;1.33;;;15.60;99.90;;;;;;5055261;28;20181;-75
2022/10/26 00:39:36;;;;;;;3.10;0.87;;;15.60;99.90;;;;;;5049355;28;20247;-75
2022/10/26 00:42:02;;;;;;;1.80;0.80;;;15.70;99.90;;;;;;5043811;28;20387;-75
2022/10/26 00:45:03;;;;;;;2.53;1.00;;;15.70;99.90;;;;;;5024652;28;20185;-75
2022/10/26 00:47:47;;;;;;;4.03;0.80;;;15.60;99.90;;;;;;5027113;28;20691;-76
2022/10/26 00:50:31;;;;;;;2.43;0.90;;;15.60;99.90;;;;;;5036211;28;20612;-75
2022/10/26 00:52:59;;;;;;;2.43;0.80;;;15.70;99.90;;;;;;5015800;28;20576;-75
2022/10/26 00:55:29;;;;;;;2.50;1.07;;;15.70;99.90;;;;;;5033671;28;21032;-76
2022/10/26 00:57:55;;;;;;;3.13;0.97;;;15.70;99.90;;;;;;5033696;28;20557;-75
2022/10/26 01:00:21;;;;;;;5.27;1.40;;;15.70;99.90;;;;;;5032424;28;20603;-75
2022/10/26 01:02:49;;;;;;;1.40;0.73;;;15.70;99.90;;;;;;5033100;28;20734;-75
2022/10/26 01:05:16;;;;;;;1.90;0.80;;;15.70;99.90;;;;;;5033397;28;20189;-75
2022/10/26 01:07:44;;;;;;;3.30;0.80;;;15.70;99.90;;;;;;5015121;28;20587;-75
2022/10/26 01:10:12;;;;;;;2.13;0.83;;;15.80;99.90;;;;;;5016165;28;20612;-75
2022/10/26 01:12:38;;;;;;;2.43;0.90;;;15.70;99.90;;;;;;5033649;28;20560;-75
2022/10/26 01:15:05;;;;;;;1.80;0.80;;;15.70;99.90;;;;;;5016075;28;20560;-76
2022/10/26 01:17:41;;;;;;;1.97;0.80;;;15.70;99.90;;;;;;5033772;28;20557;-74
2022/10/26 01:20:32;;;;;;;3.03;0.90;;;15.80;99.90;;;;;;5015764;28;21194;-75
2022/10/26 01:23:34;;;;;;;3.13;0.70;;;15.80;99.90;;;;;;5032932;28;20561;-75
2022/10/26 01:26:22;;;;;;;1.50;0.67;;;15.80;99.90;;;;;;5036063;28;20719;-75
2022/10/26 01:29:11;;;;;;;2.50;0.90;;;15.80;99.90;;;;;;5033108;28;20623;-75
2022/10/26 01:31:47;;;;;;;5.97;1.00;;;15.80;99.90;;;;;;5014811;28;20584;-75
2022/10/26 01:34:23;;;;;;;2.17;0.97;;;15.80;99.90;;;;;;5032690;28;20643;-75
2022/10/26 01:36:56;;;;;;;2.87;0.90;;;15.90;99.90;;;;;;5033061;28;20572;-75
2022/10/26 01:39:28;;;;;;;2.23;1.10;;;15.80;99.90;;;;;;5015105;28;20572;-76
2022/10/26 01:42:00;;;;;;;2.97;0.87;;;15.90;99.90;;;;;;5032933;28;20564;-75
2022/10/26 01:44:41;;;;;;;4.90;0.80;;;15.90;99.90;;;;;;5032929;28;20614;-75
2022/10/26 01:47:10;;;;;;;3.30;0.90;;;15.90;99.90;;;;;;5032849;28;20631;-75
2022/10/26 01:49:42;;;;;;;4.53;0.70;;;15.90;99.90;;;;;;5019715;28;21208;-78
2022/10/26 01:52:09;;;;;;;5.70;1.03;;;15.90;99.90;;;;;;5042323;28;20580;-77
2022/10/26 01:54:36;;;;;;;2.60;0.80;;;15.90;99.90;;;;;;5040670;28;20575;-77
2022/10/26 01:57:05;;;;;;;1.90;0.80;;;15.90;99.90;;;;;;5001427;28;20577;-77
2022/10/26 01:59:31;;;;;;;2.07;0.80;;;15.90;99.90;;;;;;5032058;28;20608;-77
2022/10/26 02:02:15;;;;;;;6.80;0.93;;;15.90;99.90;;;;;;5033333;28;20579;-78
2022/10/26 02:04:56;;;;;;;4.00;1.10;;;15.90;99.90;;;;;;5015904;28;20205;-77
2022/10/26 02:07:32;;;;;;;1.80;0.73;;;15.90;99.90;;;;;;4998877;28;20586;-77
2022/10/26 02:10:29;;;;;;;3.40;0.87;;;15.90;99.90;;;;;;5035540;28;20958;-77
2022/10/26 02:13:32;;;;;;;4.23;0.90;;;15.90;99.90;;;;;;5032595;28;20561;-77
2022/10/26 02:16:37;;;;;;;3.67;0.97;;;16.00;99.90;;;;;;5031667;28;20655;-77
2022/10/26 02:19:24;;;;;;;2.43;0.93;;;16.00;99.90;;;;;;5019288;28;20922;-78
2022/10/26 02:21:56;;;;;;;3.27;0.80;;;15.90;99.90;;;;;;5033163;28;20587;-78
2022/10/26 02:24:23;;;;;;;2.23;0.70;;;16.00;99.90;;;;;;5035638;28;20564;-78
2022/10/26 02:26:51;;;;;;;2.27;0.90;;;16.00;99.90;;;;;;5040094;28;20616;-78
2022/10/26 02:29:19;;;;;;;2.10;0.80;;;16.00;99.90;;;;;;5040482;28;20584;-78
2022/10/26 02:31:49;;;;;;;1.50;0.80;;;16.00;99.90;;;;;;5020783;28;20564;-78
2022/10/26 02:34:20;;;;;;;4.90;1.33;;;16.00;99.90;;;;;;5038130;28;20576;-78
2022/10/26 02:36:48;;;;;;;3.30;0.70;;;16.00;99.90;;;;;;5036818;28;20572;-78
2022/10/26 02:39:15;;;;;;;1.60;0.90;;;16.10;99.90;;;;;;5018544;28;20560;-78
2022/10/26 02:41:44;;;;;;;2.67;0.80;;;16.00;99.90;;;;;;5034884;28;21072;-78
2022/10/26 02:44:20;;;;;;;4.93;0.90;;;16.10;99.90;;;;;;5032175;28;20580;-78
2022/10/26 02:46:46;;;;;;;3.20;0.80;;;16.10;99.90;;;;;;5037285;28;20714;-78
2022/10/26 02:49:13;;;;;;;2.00;0.80;;;16.10;99.90;;;;;;5018643;28;20635;-78
2022/10/26 02:51:48;;;;;;;2.03;0.87;;;16.10;99.90;;;;;;5018061;28;20619;-78
2022/10/26 02:54:30;;;;;;;2.77;0.90;;;16.10;99.90;;;;;;5034111;28;20173;-78
2022/10/26 02:57:06;;;;;;;3.67;1.00;;;16.00;99.90;;;;;;5015599;28;20588;-78
2022/10/26 02:59:35;;;;;;;3.87;0.80;;;16.10;99.90;;;;;;5035254;28;20616;-78
2022/10/26 03:02:02;;;;;;;6.60;1.00;;;16.10;99.90;;;;;;5033143;28;20576;-77
2022/10/26 03:04:31;;;;;;;1.70;0.70;;;16.10;99.90;;;;;;5032333;28;20599;-77
2022/10/26 03:06:57;;;;;;;1.60;0.83;;;16.10;99.90;;;;;;5050855;28;20619;-77
2022/10/26 03:09:23;;;;;;;1.67;0.77;;;16.10;99.90;;;;;;5038941;28;20611;-77
2022/10/26 03:11:49;;;;;;;3.00;1.93;;;16.10;99.90;;;;;;5031746;28;20671;-78
2022/10/26 03:14:15;;;;;;;2.73;0.80;;;16.10;99.90;;;;;;5031617;28;20651;-77
2022/10/26 03:16:41;;;;;;;2.17;0.97;;;16.10;99.90;;;;;;5032889;28;20169;-77
2022/10/26 03:19:07;;;;;;;6.03;1.13;;;16.10;99.90;;;;;;5032952;28;20170;-77
2022/10/26 03:21:32;;;;;;;3.20;0.97;;;16.20;99.90;;;;;;5031669;28;20809;-77
2022/10/26 03:23:59;;;;;;;3.50;1.33;;;16.20;99.90;;;;;;5031338;28;20641;-77
2022/10/26 03:26:25;;;;;;;2.97;1.00;;;16.20;99.90;;;;;;5014071;28;20208;-77
2022/10/26 03:28:50;;;;;;;2.87;0.83;;;16.20;99.90;;;;;;5031788;28;20572;-77
2022/10/26 03:31:16;;;;;;;2.90;1.10;;;16.20;99.90;;;;;;5036106;28;20186;-79
2022/10/26 03:33:42;;;;;;;4.43;1.13;;;16.20;99.90;;;;;;5017993;28;20184;-79
2022/10/26 03:36:08;;;;;;;2.70;1.07;;;16.30;99.90;;;;;;5035674;28;20264;-79
2022/10/26 03:38:34;;;;;;;1.83;0.90;;;16.20;99.90;;;;;;5035623;28;20176;-79
2022/10/26 03:41:00;;;;;;;4.27;0.80;;;16.20;99.90;;;;;;5017836;28;20604;-77
2022/10/26 03:43:26;;;;;;;2.60;0.70;;;16.20;99.90;;;;;;5035257;28;20220;-76
2022/10/26 03:45:52;;;;;;;4.43;0.80;;;16.20;99.90;;;;;;5035389;28;20624;-76
2022/10/26 03:48:18;;;;;;;3.30;0.80;;;16.20;99.90;;;;;;5035403;28;20938;-76
2022/10/26 03:50:43;;;;;;;4.57;0.90;;;16.20;99.90;;;;;;5017645;28;20190;-77
2022/10/26 03:53:09;;;;;;;3.40;0.97;;;16.30;99.90;;;;;;5036046;28;20545;-76
2022/10/26 03:55:35;;;;;;;2.23;0.90;;;16.30;99.90;;;;;;5039154;28;20182;-77
2022/10/26 03:58:01;;;;;;;3.40;0.80;;;16.30;99.90;;;;;;5035154;28;20579;-77
2022/10/26 04:00:27;;;;;;;6.40;0.90;;;16.40;99.90;;;;;;5034869;28;20281;-76
2022/10/26 04:02:55;;;;;;;1.93;0.83;;;16.40;99.90;;;;;;5017055;28;20174;-76
2022/10/26 04:05:21;;;;;;;3.90;0.90;;;16.40;99.90;;;;;;5022036;28;20201;-76
2022/10/26 04:07:54;;;;;;;9.60;1.10;;;16.40;99.90;;;;;;5051441;28;20941;-76
2022/10/26 04:10:20;;;;;;;2.10;1.00;;;16.40;99.90;;;;;;5074516;28;20610;-77
2022/10/26 04:12:45;;;;;;;2.40;1.30;;;16.40;99.90;;;;;;5074360;28;20574;-76
2022/10/26 04:15:11;;;;;;;2.27;1.33;;;16.40;99.90;;;;;;5056671;28;20559;-76
2022/10/26 04:17:37;;;;;;;4.17;1.03;;;16.40;99.90;;;;;;5056773;28;20172;-76
2022/10/26 04:20:03;;;;;;;5.60;0.87;;;16.40;99.90;;;;;;5074513;28;20679;-76
2022/10/26 04:22:29;;;;;;;3.30;0.80;;;16.50;99.90;;;;;;5074991;28;20624;-77
2022/10/26 04:24:54;;;;;;;3.00;0.87;;;16.50;99.90;;;;;;5075332;28;20563;-77
2022/10/26 04:27:21;;;;;;;4.87;1.47;;;16.50;99.90;;;;;;5074337;28;20161;-76
2022/10/26 04:29:46;;;;;;;4.07;1.10;;;16.50;99.90;;;;;;5067735;28;20192;-77
2022/10/26 04:32:12;;;;;;;6.57;1.40;;;16.50;99.90;;;;;;5059138;28;20650;-77
2022/10/26 04:34:38;;;;;;;2.10;1.10;;;16.50;99.90;;;;;;5034828;28;20253;-77
2022/10/26 04:37:04;;;;;;;4.70;0.90;;;16.50;99.90;;;;;;5034727;28;20173;-77
2022/10/26 04:39:29;;;;;;;3.60;1.10;;;16.50;99.90;;;;;;5034243;28;20197;-77
2022/10/26 04:41:55;;;;;;;2.87;1.10;;;16.50;99.90;;;;;;5033030;28;20177;-77
2022/10/26 04:44:21;;;;;;;3.57;1.10;;;16.50;99.90;;;;;;5034937;28;20563;-77
2022/10/26 04:46:47;;;;;;;1.80;0.80;;;16.50;99.90;;;;;;5017659;28;20292;-76
2022/10/26 04:49:12;;;;;;;5.37;0.90;;;16.60;99.90;;;;;;5035371;28;20230;-76
2022/10/26 04:51:38;;;;;;;5.00;1.00;;;16.60;99.90;;;;;;5035549;28;20162;-77
2022/10/26 04:54:04;;;;;;;1.97;0.80;;;16.60;99.90;;;;;;5018643;28;20599;-78
2022/10/26 04:56:31;;;;;;;3.23;1.27;;;16.60;99.90;;;;;;5035912;28;20196;-77
2022/10/26 04:58:56;;;;;;;3.23;1.40;;;16.60;99.90;;;;;;5037432;28;20166;-76
2022/10/26 05:01:22;;;;;;;3.30;1.13;;;16.70;99.90;;;;;;5037387;28;20623;-76
2022/10/26 05:03:49;;;;;;;3.33;0.80;;;16.70;99.90;;;;;;5036427;28;20177;-76
2022/10/26 05:06:15;;;;;;;2.17;0.93;;;16.70;99.90;;;;;;5034321;28;20208;-76
2022/10/26 05:08:41;;;;;;;5.83;1.23;;;16.70;99.90;;;;;;5040582;28;20661;-76
2022/10/26 05:11:06;;;;;;;2.73;0.80;;;16.70;99.90;;;;;;5036747;28;20197;-77
2022/10/26 05:13:32;;;;;;;2.63;1.00;;;16.70;99.90;;;;;;5019276;28;20170;-77
2022/10/26 05:15:58;;;;;;;3.20;0.90;;;16.70;99.90;;;;;;5036085;28;20201;-77
2022/10/26 05:18:25;;;;;;;1.70;0.70;;;16.80;99.90;;;;;;5004046;28;20173;-77
2022/10/26 05:20:54;;;;;;;2.67;0.90;;;16.80;99.90;;;;;;5036173;28;20197;-76
2022/10/26 05:23:20;;;;;;;2.80;0.90;;;16.80;99.90;;;;;;5035010;28;20577;-77
2022/10/26 05:25:47;;;;;;;2.47;0.90;;;16.80;99.90;;;;;;5019246;28;20608;-76
2022/10/26 05:28:14;;;;;;;2.00;0.90;;;16.90;99.90;;;;;;5017990;28;20573;-77
2022/10/26 05:30:41;;;;;;;4.20;0.90;;;16.90;99.90;;;;;;5020056;28;20707;-76
2022/10/26 05:33:09;;;;;;;2.17;0.90;;;16.90;99.90;;;;;;5037853;28;20561;-76
2022/10/26 05:35:36;;;;;;;3.20;1.00;;;16.90;99.90;;;;;;5036562;28;20631;-77
2022/10/26 05:38:16;;;;;;;4.57;1.10;;;16.90;99.90;;;;;;5034761;28;20568;-77
2022/10/26 05:40:53;;;;;;;1.97;0.90;;;16.90;99.90;;;;;;5033178;28;20691;-77
2022/10/26 05:43:20;;;;;;;2.10;0.70;;;16.90;99.90;;;;;;5033656;28;20588;-77
2022/10/26 05:45:48;;;;;;;4.50;0.90;;;16.90;99.90;;;;;;5038956;28;20623;-77
2022/10/26 05:48:14;;;;;;;2.53;0.90;;;17.00;99.90;;;;;;5017143;28;20565;-77
2022/10/26 05:50:39;;;;;;;3.57;1.23;;;17.00;99.90;;;;;;5034122;28;20596;-77
2022/10/26 05:53:05;;;;;;;1.80;0.90;;;17.00;99.90;;;;;;5033077;28;20178;-77
2022/10/26 05:55:31;;;;;;;1.70;0.70;;;17.00;99.90;;;;;;5033979;28;20545;-77
2022/10/26 05:57:57;;;;;;;2.60;0.63;;;17.00;99.90;;;;;;5033807;28;20188;-77
2022/10/26 06:00:25;;;;;;;3.13;1.30;;;17.00;99.90;;;;;;5015491;28;20612;-78
2022/10/26 06:03:22;;;;;;;2.07;0.80;;;17.10;99.90;;;;;;5044740;28;20593;-77
2022/10/26 06:05:52;;;;;;;2.50;1.07;;;17.00;99.90;;;;;;5033709;28;20623;-77
2022/10/26 06:08:19;;;;;;;2.63;1.10;;;17.00;99.90;;;;;;5034004;28;20588;-77
2022/10/26 06:10:45;;;;;;;3.47;0.90;;;17.10;99.90;;;;;;5028880;28;20682;-77
2022/10/26 06:13:11;;;;;;;2.23;0.93;;;17.10;99.90;;;;;;5055500;28;20920;-77
2022/10/26 06:15:59;;;;;;;3.53;0.97;;;17.00;99.90;;;;;;5075797;28;21140;-77
2022/10/26 06:19:00;;;;;;;1.93;0.80;;;17.00;99.90;;;;;;5064720;28;20590;-77
2022/10/26 06:21:48;;;;;;;3.70;1.00;;;17.00;99.90;;;;;;5037297;28;21191;-77
2022/10/26 06:24:46;;;;;;;5.83;0.83;;;17.00;99.90;;;;;;5060805;28;20694;-77
2022/10/26 06:27:25;;;;;;;5.17;0.80;;;17.00;99.90;;;;;;5051837;28;21025;-77
2022/10/26 06:30:05;;;;;;;1.97;0.80;;;17.00;99.90;;;;;;5046693;28;21152;-77
2022/10/26 06:32:32;;;;;;;2.90;0.90;;;17.00;99.90;;;;;;5055467;28;20632;-77
2022/10/26 06:35:12;;;;;;;2.90;0.97;;;17.00;99.90;;;;;;5073283;28;20563;-77
2022/10/26 06:37:39;;;;;;;2.73;0.90;;;17.10;99.90;;;;;;5074629;28;20566;-77
2022/10/26 06:40:06;;;;;;;3.80;1.10;;;17.10;99.90;;;;;;5073146;28;20606;-77
2022/10/26 06:42:32;;;;;;;5.77;0.90;;;17.10;99.90;;;;;;5073700;28;20673;-77
2022/10/26 06:44:58;;;;;;;3.87;0.97;;;17.10;99.90;;;;;;5074033;28;20986;-77
2022/10/26 06:47:35;;;;;;;2.63;0.90;;;17.10;99.90;;;;;;5073354;28;20658;-77
2022/10/26 06:50:28;;;;;;;2.50;1.13;;;17.00;99.90;;;;;;5072397;28;20642;-77
2022/10/26 06:53:28;;;;;;;2.90;1.10;;;17.00;99.90;;;;;;5071623;28;20581;-76
2022/10/26 06:55:56;;;;;;;3.10;1.07;;;16.90;99.90;;;;;;5019285;28;20583;-76
2022/10/26 06:58:27;;;;;;;3.00;0.97;;;16.90;99.90;;;;;;5054389;28;20609;-76
2022/10/26 07:00:54;;;;;;;1.90;0.90;;;16.80;99.90;;;;;;5076889;28;21000;-76
2022/10/26 07:03:20;;;;;;;2.90;1.50;;;16.80;99.90;;;;;;5071246;28;20567;-76
2022/10/26 07:05:45;;;;;;;3.50;1.40;;;16.70;99.90;;;;;;5071018;28;20633;-76
2022/10/26 07:08:11;;;;;;;2.53;1.10;;;16.70;99.90;;;;;;5071474;28;20559;-77
2022/10/26 07:10:38;;;;;;;4.03;1.20;;;16.70;99.90;;;;;;5053476;28;20646;-76
2022/10/26 07:13:05;;;;;;;2.60;1.17;;;16.70;99.90;;;;;;5069822;28;20944;-76
2022/10/26 07:15:32;;;;;;;3.43;1.10;;;16.60;99.90;;;;;;5071421;28;20890;-77
2022/10/26 07:17:58;;;;;;;2.90;1.10;;;16.60;99.90;;;;;;5071159;28;20570;-76
2022/10/26 07:20:23;;;;;;;2.30;0.97;;;16.50;99.90;;;;;;5053446;28;20620;-76
2022/10/26 07:22:53;;;;;;;4.13;1.20;;;16.50;99.90;;;;;;5071065;28;20686;-76
2022/10/26 07:25:19;;;;;;;3.63;1.20;;;16.50;99.90;;;;;;5072343;28;20196;-76
2022/10/26 07:27:45;;;;;;;3.40;1.13;;;16.50;99.90;;;;;;5071212;28;20567;-76
2022/10/26 07:30:11;;;;;;;3.83;1.17;;;16.50;99.90;;;;;;5071399;28;20555;-76
2022/10/26 07:32:37;;;;;;;2.77;0.90;;;16.50;99.90;;;;;;5071307;28;20574;-76
2022/10/26 07:35:03;;;;;;;2.30;1.23;;;16.50;99.90;;;;;;5072289;28;20667;-76
2022/10/26 07:37:29;;;;;;;4.00;1.77;;;16.50;99.90;;;;;;5076611;28;20172;-76
2022/10/26 07:39:55;;;;;;;3.73;1.10;;;16.50;99.90;;;;;;5071946;28;20725;-76
2022/10/26 07:42:21;;;;;;;4.60;1.37;;;16.60;99.90;;;;;;5071857;28;20168;-76
2022/10/26 07:44:46;;;;;;;5.50;1.10;;;16.60;99.90;;;;;;5072509;28;20165;-76
2022/10/26 07:47:12;;;;;;;3.63;1.50;;;16.60;99.90;;;;;;5054987;28;20200;-76
2022/10/26 07:49:38;;;;;;;3.07;1.13;;;16.60;99.90;;;;;;5074225;28;20664;-76
2022/10/26 07:52:04;;;;;;;2.00;1.20;;;16.70;99.90;;;;;;5094135;22;20152;-80
2022/10/26 07:54:31;;;;;;;4.10;1.40;;;16.70;99.90;;;;;;5019484;28;20640;-81
2022/10/26 07:56:58;;;;;;;7.13;1.40;;;16.80;99.90;;;;;;5036484;28;20574;-80
2022/10/26 07:59:24;;;;;;;3.00;1.40;;;16.90;99.90;;;;;;5036244;28;20570;-80
2022/10/26 08:01:50;;;;;;;3.00;1.63;;;17.00;99.90;;;;;;5036148;28;20589;-81
2022/10/26 08:04:15;;;;;;;3.53;1.17;;;17.10;99.90;;;;;;5019687;28;20570;-80
2022/10/26 08:06:41;;;;;;;2.37;1.63;;;17.10;99.90;;;;;;5053394;28;20691;-80
2022/10/26 08:09:07;;;;;;;6.00;1.00;;;17.20;99.90;;;;;;5020090;28;20567;-80
2022/10/26 08:11:35;;;;;;;2.77;1.30;;;17.20;99.90;;;;;;5036299;28;20585;-80
2022/10/26 08:14:04;;;;;;;3.50;1.50;;;17.30;99.90;;;;;;5069379;28;20691;-81
2022/10/26 08:16:31;;;;;;;3.10;1.50;;;17.30;99.90;;;;;;5061660;28;20597;-82
2022/10/26 08:18:57;;;;;;;4.20;1.90;;;17.30;99.90;;;;;;5052607;28;20605;-81
2022/10/26 08:21:23;;;;;;;5.73;2.10;;;17.40;99.90;;;;;;5045122;28;20583;-82
2022/10/26 08:23:49;;;;;;;5.37;1.30;;;17.50;99.90;;;;;;5025855;28;20601;-81
2022/10/26 08:26:16;;;;;;;3.90;1.77;;;17.60;99.90;;;;;;5046735;28;20668;-81
2022/10/26 08:28:42;;;;;;;5.53;2.07;;;17.70;99.90;;;;;;5029818;28;20580;-81
2022/10/26 08:31:08;;;;;;;3.80;1.60;;;18.10;99.90;;;;;;5037480;28;21061;-82
2022/10/26 08:33:34;;;;;;;2.70;1.60;;;18.50;99.90;;;;;;5020185;28;20626;-81
2022/10/26 08:36:03;;;;;;;3.47;1.10;;;19.00;99.90;;;;;;5019990;28;20595;-81
2022/10/26 08:38:30;;;;;;;7.53;1.30;;;19.70;99.90;;;;;;5019855;28;20591;-82
2022/10/26 08:40:57;;;;;;;5.03;1.43;;;20.40;99.90;;;;;;5020372;28;20582;-82
2022/10/26 08:43:38;;;;;;;2.77;1.10;;;20.70;99.90;;;;;;5020003;28;21371;-80
2022/10/26 08:46:18;;;;;;;3.30;1.00;;;20.80;99.90;;;;;;5019882;28;20621;-86
2022/10/26 08:48:58;;;;;;;3.80;1.33;;;20.80;99.90;;;;;;5019907;28;20571;-86
2022/10/26 08:51:34;;;;;;;4.47;1.43;;;20.70;99.90;;;;;;5019858;28;20568;-85
2022/10/26 08:54:03;;;;;;;3.70;1.20;;;20.50;99.90;;;;;;5019063;28;20665;-84
2022/10/26 08:56:51;;;;;;;3.97;1.20;;;20.30;99.90;;;;;;5019564;28;20940;-84
2022/10/26 08:59:39;;;;;;;3.47;1.30;;;20.10;99.90;;;;;;5019974;28;20579;-85
2022/10/26 09:02:12;;;;;;;2.57;1.27;;;20.00;99.90;;;;;;5039757;28;20643;-85
2022/10/26 09:04:39;;;;;;;2.53;1.10;;;19.90;99.90;;;;;;5055506;28;20564;-84
2022/10/26 09:07:11;;;;;;;4.00;1.03;;;19.80;99.90;;;;;;5036013;28;20650;-85
2022/10/26 09:09:49;;;;;;;2.60;1.07;;;19.70;99.90;;;;;;5019506;28;20615;-85
2022/10/26 09:12:41;;;;;;;6.43;1.40;;;19.80;99.90;;;;;;5041491;28;20990;-81
2022/10/26 09:15:07;;;;;;;2.73;1.20;;;19.70;99.90;;;;;;5022477;28;20581;-81
2022/10/26 09:17:42;;;;;;;2.20;0.80;;;19.70;99.90;;;;;;5042960;28;20694;-81
2022/10/26 09:20:36;;;;;;;4.37;1.33;;;19.80;99.90;;;;;;4991288;28;20644;-81
2022/10/26 09:23:12;;;;;;;4.60;1.20;;;19.70;99.90;;;;;;5020926;28;21200;-80
2022/10/26 09:25:39;;;;;;;3.40;0.97;;;19.80;99.90;;;;;;5069092;28;21174;-82
2022/10/26 09:28:17;;;;;;;2.23;1.00;;;20.20;99.90;;;;;;5056388;28;20914;-81
2022/10/26 09:30:45;;;;;;;2.93;0.97;;;20.70;99.90;;;;;;5006704;28;20579;-82
2022/10/26 09:33:17;;;;;;;2.93;0.90;;;21.50;99.90;;;;;;5057219;28;20672;-82
2022/10/26 09:35:48;;;;;;;1.60;0.70;;;22.10;99.90;;;;;;5031737;28;20646;-82
2022/10/26 09:38:29;;;;;;;4.47;1.53;;;22.50;99.90;;;;;;5015578;28;20569;-82
2022/10/26 09:41:05;;;;;;;2.73;0.90;;;22.80;99.90;;;;;;5035046;28;21034;-81
2022/10/26 09:43:41;;;;;;;2.53;1.10;;;23.50;99.90;;;;;;5015167;28;20972;-81
2022/10/26 09:46:14;;;;;;;2.93;0.93;;;24.20;99.90;;;;;;5015066;28;20630;-80
2022/10/26 09:48:54;;;;;;;3.70;1.13;;;25.00;99.90;;;;;;5032756;28;20578;-80
2022/10/26 09:51:22;;;;;;;2.53;1.40;;;25.60;99.90;;;;;;5036949;28;20681;-81
2022/10/26 09:53:49;;;;;;;1.80;1.10;;;26.20;99.90;;;;;;5051968;28;20953;-82
2022/10/26 09:56:16;;;;;;;2.23;1.20;;;26.80;99.90;;;;;;5037482;28;20568;-82
2022/10/26 09:58:58;;;;;;;4.90;1.20;;;27.30;99.90;;;;;;5055329;28;20889;-82
2022/10/26 10:01:34;;;;;;;4.10;0.90;;;27.60;99.90;;;;;;5054441;28;20592;-83
2022/10/26 10:04:11;;;;;;;1.97;0.90;;;28.00;99.90;;;;;;5045152;28;20624;-81
2022/10/26 10:06:38;;;;;;;3.73;0.90;;;28.30;99.90;;;;;;5059959;28;20974;-81
2022/10/26 10:09:14;;;;;;;3.10;1.03;;;28.40;99.90;;;;;;5017442;28;20595;-80
2022/10/26 10:11:59;;;;;;;1.90;0.80;;;28.60;99.90;;;;;;5054754;28;20619;-81
2022/10/26 10:14:38;;;;;;;2.63;1.10;;;28.60;99.90;;;;;;5053677;28;21045;-81
2022/10/26 10:17:19;;;;;;;2.63;0.90;;;28.70;99.90;;;;;;5070862;28;20749;-81
2022/10/26 10:19:45;;;;;;;4.63;1.13;;;28.90;99.90;;;;;;5055769;28;20616;-81
2022/10/26 10:22:22;;;;;;;5.70;1.13;;;29.00;99.90;;;;;;5019962;28;21198;-81
2022/10/26 10:24:59;;;;;;;3.40;1.00;;;28.90;99.90;;;;;;5036614;28;20580;-81
2022/10/26 10:27:27;;;;;;;1.87;0.80;;;28.90;99.90;;;;;;5070099;28;20567;-81
2022/10/26 10:29:58;;;;;;;2.30;1.00;;;29.00;99.90;;;;;;5054431;28;21037;-83
2022/10/26 10:32:26;;;;;;;4.47;2.07;;;29.10;99.90;;;;;;5054408;28;20606;-81
2022/10/26 10:34:57;;;;;;;4.37;1.47;;;29.10;99.90;;;;;;5052501;28;20578;-81
2022/10/26 10:37:29;;;;;;;4.43;1.47;;;29.20;99.90;;;;;;5053720;28;20777;-81
2022/10/26 10:40:03;;;;;;;3.97;1.53;;;29.50;99.90;;;;;;5069679;28;20655;-81
2022/10/26 10:42:38;;;;;;;3.07;1.30;;;29.70;99.90;;;;;;5036027;28;21205;-81
2022/10/26 10:45:06;;;;;;;2.13;0.90;;;29.70;99.90;;;;;;5021101;28;20570;-81
2022/10/26 10:47:38;;;;;;;4.90;1.20;;;29.90;99.90;;;;;;5037303;28;20678;-81
2022/10/26 10:50:14;;;;;;;2.90;0.90;;;30.00;99.90;;;;;;5054177;28;20608;-81
2022/10/26 10:52:41;;;;;;;3.10;0.90;;;30.10;99.90;;;;;;5054134;28;20611;-79
2022/10/26 10:55:12;;;;;;;2.17;1.00;;;30.10;99.90;;;;;;5073160;28;20562;-81
2022/10/26 10:58:23;;;;;;;2.07;0.90;;;30.20;99.90;;;;;;5037063;28;20581;-81
2022/10/26 11:00:49;;;;;;;2.53;0.80;;;30.30;99.90;;;;;;5088401;28;20619;-81
2022/10/26 11:03:30;;;;;;;3.87;1.23;;;30.30;99.80;;;;;;5089914;28;20597;-81
2022/10/26 11:06:20;;;;;;;4.37;1.33;;;30.20;98.10;;;;;;5074713;28;20270;-81
2022/10/26 11:09:02;;;;;;;1.93;0.80;;;30.20;99.20;;;;;;5075017;28;20573;-80
2022/10/26 11:11:37;;;;;;;4.37;1.70;;;30.10;98.40;;;;;;5076621;28;20968;-80
2022/10/26 11:14:13;;;;;;;2.03;1.07;;;30.10;98.00;;;;;;5053369;28;20661;-80
2022/10/26 11:17:05;;;;;;;3.20;1.57;;;29.90;97.40;;;;;;5036788;28;20654;-80
2022/10/26 11:19:44;;;;;;;3.30;1.47;;;29.70;97.30;;;;;;5053615;28;20567;-80
2022/10/26 11:22:14;;;;;;;5.23;1.23;;;29.40;96.50;;;;;;5071336;28;20625;-80
2022/10/26 11:25:15;;;;;;;3.00;1.30;;;29.10;96.40;;;;;;5037309;28;20571;-81
2022/10/26 11:28:00;;;;;;;5.00;1.20;;;28.70;96.60;;;;;;5032944;28;20579;-81
2022/10/26 11:30:29;;;;;;;3.30;1.40;;;28.40;96.20;;;;;;5051479;28;20885;-80
2022/10/26 11:33:18;;;;;;;8.00;2.13;;;28.10;96.70;;;;;;5009423;28;20636;-80
2022/10/26 11:35:56;;;;;;;2.67;1.40;;;27.80;96.60;;;;;;5001919;28;20635;-81
2022/10/26 11:38:42;;;;;;;4.00;2.27;;;27.60;96.90;;;;;;5010820;28;20549;-81
2022/10/26 11:41:28;;;;;;;9.60;7.40;;;27.40;97.10;;;;;;5046221;28;20584;-81
2022/10/26 11:44:10;;;;;;;6.63;4.90;;;27.20;96.90;;;;;;5039921;28;20623;-82
2022/10/26 11:46:42;;;;;;;4.83;3.30;;;27.00;97.10;;;;;;5052195;28;20578;-81
2022/10/26 11:49:18;;;;;;;5.07;1.57;;;26.90;97.50;;;;;;5059824;28;20582;-81
2022/10/26 11:52:08;;;;;;;2.80;1.00;;;26.70;97.20;;;;;;5074634;28;20573;-80
2022/10/26 11:54:52;;;;;;;3.90;1.60;;;26.50;97.40;;;;;;5070435;28;20649;-80
2022/10/26 11:57:19;;;;;;;2.70;1.10;;;26.30;97.40;;;;;;5054882;28;20618;-81
2022/10/26 11:59:57;;;;;;;2.73;0.60;;;26.20;97.90;;;;;;5055635;28;20567;-80
2022/10/26 12:02:24;;;;;;;2.40;0.90;;;26.00;97.80;;;;;;5054231;28;20606;-82
2022/10/26 12:05:07;;;;;;;3.60;0.83;;;25.80;97.90;;;;;;5054505;28;21116;-79
2022/10/26 12:07:37;;;;;;;2.80;0.70;;;25.70;98.10;;;;;;5021268;28;20687;-79
2022/10/26 12:10:09;;;;;;;1.90;0.70;;;25.60;98.30;;;;;;5017614;28;20576;-80
2022/10/26 12:12:51;;;;;;;3.53;2.50;;;25.50;98.40;;;;;;5016238;28;20600;-80
2022/10/26 12:15:29;;;;;;;5.50;3.70;;;25.30;98.40;;;;;;5033258;28;20580;-80
2022/10/26 12:18:14;;;;;;;3.50;1.60;;;25.30;98.60;;;;;;5034352;28;20572;-79
2022/10/26 12:20:55;;;;;;;1.60;0.67;;;25.20;98.80;;;;;;5034450;28;20580;-80
2022/10/26 12:23:22;;;;;;;1.60;0.60;;;25.10;99.00;;;;;;5006764;28;20646;-80
2022/10/26 12:25:48;;;;;;;2.57;0.60;;;25.10;99.20;;;;;;5018055;28;20584;-80
2022/10/26 12:28:35;;;;;;;2.33;0.60;;;25.10;99.40;;;;;;5034267;28;20569;-80
2022/10/26 12:31:36;;;;;;;12.53;1.90;;;25.00;99.40;;;;;;5033555;28;20169;-80
2022/10/26 12:34:14;;;;;;;3.60;0.70;;;25.00;99.30;;;;;;5023188;28;20603;-80
2022/10/26 12:37:08;;;;;;;4.83;0.90;;;25.00;99.20;;;;;;5017477;28;20615;-80
2022/10/26 12:39:37;;;;;;;1.60;0.70;;;24.90;99.40;;;;;;5016575;28;20580;-80
2022/10/26 12:42:08;;;;;;;2.80;0.63;;;25.00;99.60;;;;;;5033886;28;20565;-80
2022/10/26 12:44:38;;;;;;;2.63;0.67;;;25.00;99.70;;;;;;5034072;28;20557;-80
2022/10/26 12:47:04;;;;;;;2.53;0.73;;;25.00;99.80;;;;;;5034439;28;20620;-80
2022/10/26 12:49:58;;;;;;;1.30;0.50;;;25.00;99.90;;;;;;5015810;28;20584;-80
2022/10/26 12:52:46;;;;;;;1.37;0.60;;;25.00;99.80;;;;;;4999425;28;20623;-79
2022/10/26 12:55:12;;;;;;;1.80;0.60;;;25.00;99.90;;;;;;5018993;28;20949;-79
2022/10/26 12:57:59;;;;;;;1.93;0.50;;;25.00;99.90;;;;;;5038607;28;20701;-81
2022/10/26 13:00:26;;;;;;;2.73;0.90;;;25.00;99.90;;;;;;5054618;28;20172;-81
2022/10/26 13:03:17;;;;;;;1.93;0.83;;;25.00;99.90;;;;;;5054508;28;20975;-81
2022/10/26 13:05:54;;;;;;;4.60;0.80;;;25.00;99.80;;;;;;5039580;28;20571;-80
2022/10/26 13:08:20;;;;;;;2.13;0.50;;;25.00;99.90;;;;;;5056004;28;20592;-81
2022/10/26 13:11:02;;;;;;;2.60;0.80;;;24.90;99.90;;;;;;5056056;28;20578;-81
2022/10/26 13:13:30;;;;;;;2.50;1.30;;;24.90;99.70;;;;;;5057512;28;20716;-81